createdAt,value
2023-03-21T00:00:41.284Z,30.13
2023-03-21T00:03:08.975Z,33.20
2023-03-21T00:05:42.390Z,36.27
2023-03-21T00:08:09.156Z,32.60
2023-03-21T00:10:41.239Z,32.87
2023-03-21T00:13:13.967Z,32.63
2023-03-21T00:16:01.903Z,32.60
2023-03-21T00:18:31.781Z,34.03
2023-03-21T00:21:29.340Z,30.90
2023-03-21T00:23:46.814Z,35.13
2023-03-21T00:26:14.200Z,35.30
2023-03-21T00:28:42.114Z,34.77
2023-03-21T00:31:09.406Z,35.63
2023-03-21T00:33:37.271Z,33.07
2023-03-21T00:36:05.746Z,33.47
2023-03-21T00:38:32.277Z,33.80
2023-03-21T00:41:04.572Z,35.43
2023-03-21T00:43:34.231Z,36.03
2023-03-21T00:46:00.894Z,34.20
2023-03-21T00:48:27.970Z,32.10
2023-03-21T00:50:57.171Z,33.90
2023-03-21T00:53:23.855Z,38.20
2023-03-21T00:55:50.408Z,37.83
2023-03-21T00:58:17.709Z,37.73
2023-03-21T01:00:47.039Z,41.13
2023-03-21T01:03:24.312Z,38.03
2023-03-21T01:06:05.089Z,38.10
2023-03-21T01:08:51.283Z,43.37
2023-03-21T01:11:22.813Z,36.53
2023-03-21T01:14:20.868Z,44.70
2023-03-21T01:16:37.240Z,39.87
2023-03-21T01:19:09.332Z,46.10
2023-03-21T01:21:41.267Z,43.57
2023-03-21T01:24:08.119Z,36.47
2023-03-21T01:26:34.619Z,42.90
2023-03-21T01:29:01.140Z,43.13
2023-03-21T01:31:27.652Z,43.37
2023-03-21T01:33:54.126Z,39.07
2023-03-21T01:36:25.858Z,43.33
2023-03-21T01:38:53.347Z,46.13
2023-03-21T01:41:41.963Z,43.67
2023-03-21T01:44:17.446Z,48.33
2023-03-21T01:47:07.382Z,43.03
2023-03-21T01:49:38.963Z,49.43
2023-03-21T01:52:13.182Z,44.20
2023-03-21T01:54:43.244Z,51.10
2023-03-21T01:57:13.532Z,47.13
2023-03-21T01:59:46.018Z,51.33
2023-03-21T02:02:17.923Z,48.57
2023-03-21T02:04:56.071Z,48.13
2023-03-21T02:07:28.813Z,51.57
2023-03-21T02:09:56.360Z,49.60
2023-03-21T02:12:23.330Z,45.47
2023-03-21T02:14:50.236Z,56.73
2023-03-21T02:17:38.422Z,47.93
2023-03-21T02:20:27.657Z,51.63
2023-03-21T02:23:39.173Z,48.70
2023-03-21T02:26:17.780Z,50.00
2023-03-21T02:29:04.849Z,46.80
2023-03-21T02:31:40.710Z,48.03
2023-03-21T02:34:22.123Z,53.00
2023-03-21T02:37:07.277Z,49.27
2023-03-21T02:40:15.857Z,52.17
2023-03-21T02:43:22.175Z,61.13
2023-03-21T02:45:55.168Z,58.80
2023-03-21T02:48:44.771Z,56.10
2023-03-21T02:51:19.009Z,57.37
2023-03-21T02:53:53.263Z,55.27
2023-03-21T02:56:27.372Z,60.77
2023-03-21T02:58:53.894Z,67.90
2023-03-21T03:01:20.867Z,59.83
2023-03-21T03:03:47.618Z,57.73
2023-03-21T03:06:25.714Z,58.53
2023-03-21T03:09:31.666Z,61.63
2023-03-21T03:12:14.044Z,56.13
2023-03-21T03:15:02.689Z,53.60
2023-03-21T03:17:43.080Z,57.90
2023-03-21T03:20:25.949Z,60.03
2023-03-21T03:23:54.331Z,54.13
2023-03-21T03:26:27.069Z,62.63
2023-03-21T03:28:56.333Z,67.07
2023-03-21T03:31:30.539Z,65.10
2023-03-21T03:34:00.998Z,64.43
2023-03-21T03:36:33.106Z,69.67
2023-03-21T03:39:00.913Z,64.03
2023-03-21T03:41:29.425Z,59.50
2023-03-21T03:43:58.518Z,71.37
2023-03-21T03:46:46.813Z,64.20
2023-03-21T03:49:15.750Z,58.43
2023-03-21T03:51:58.317Z,58.73
2023-03-21T03:54:29.871Z,61.07
2023-03-21T03:56:56.576Z,63.93
2023-03-21T03:59:24.246Z,59.63
2023-03-21T04:01:51.512Z,61.67
2023-03-21T04:04:18.097Z,64.57
2023-03-21T04:06:51.742Z,65.50
2023-03-21T04:09:22.162Z,67.73
2023-03-21T04:11:51.537Z,64.47
2023-03-21T04:14:18.045Z,69.70
2023-03-21T04:16:44.503Z,65.87
2023-03-21T04:19:11.107Z,65.97
2023-03-21T04:21:37.703Z,67.50
2023-03-21T04:24:04.753Z,68.77
2023-03-21T04:26:33.430Z,70.27
2023-03-21T04:29:00.912Z,63.00
2023-03-21T04:31:28.681Z,69.57
2023-03-21T04:33:55.958Z,71.10
2023-03-21T04:36:26.412Z,77.67
2023-03-21T04:38:53.354Z,75.63
2023-03-21T04:41:20.333Z,74.23
2023-03-21T04:43:47.499Z,66.10
2023-03-21T04:46:14.040Z,80.50
2023-03-21T04:48:40.599Z,77.13
2023-03-21T04:51:07.107Z,79.60
2023-03-21T04:53:33.593Z,76.73
2023-03-21T04:56:00.710Z,75.40
2023-03-21T04:58:27.482Z,82.63
2023-03-21T05:00:54.062Z,66.93
2023-03-21T05:03:22.025Z,75.63
2023-03-21T05:05:49.202Z,71.93
2023-03-21T05:08:18.330Z,79.47
2023-03-21T05:10:44.765Z,79.53
2023-03-21T05:13:11.313Z,76.83
2023-03-21T05:15:38.280Z,86.27
2023-03-21T05:18:11.492Z,72.10
2023-03-21T05:20:42.789Z,79.77
2023-03-21T05:23:12.674Z,75.63
2023-03-21T05:25:40.341Z,79.33
2023-03-21T05:28:07.864Z,84.17
2023-03-21T05:30:34.629Z,86.43
2023-03-21T05:33:01.316Z,84.37
2023-03-21T05:35:27.903Z,94.53
2023-03-21T05:37:54.380Z,94.50
2023-03-21T05:40:21.388Z,92.97
2023-03-21T05:42:48.204Z,92.73
2023-03-21T05:45:15.681Z,91.90
2023-03-21T05:47:42.229Z,90.40
2023-03-21T05:50:09.806Z,91.07
2023-03-21T05:52:36.266Z,87.63
2023-03-21T05:55:03.523Z,78.87
2023-03-21T05:57:30.028Z,80.73
2023-03-21T05:59:56.557Z,94.67
2023-03-21T06:02:23.099Z,79.50
2023-03-21T06:04:49.614Z,90.83
2023-03-21T06:07:16.104Z,98.30
2023-03-21T06:09:42.723Z,102.63
2023-03-21T06:12:09.240Z,88.00
2023-03-21T06:14:35.770Z,92.33
2023-03-21T06:17:02.213Z,96.53
2023-03-21T06:19:28.666Z,92.80
2023-03-21T06:21:55.333Z,101.30
2023-03-21T06:24:22.086Z,104.20
2023-03-21T06:26:48.585Z,97.57
2023-03-21T06:29:15.214Z,95.07
2023-03-21T06:31:41.778Z,109.97
2023-03-21T06:34:10.441Z,100.33
2023-03-21T06:36:37.255Z,105.17
2023-03-21T06:39:04.728Z,96.13
2023-03-21T06:41:31.181Z,99.93
2023-03-21T06:43:57.742Z,101.77
2023-03-21T06:46:24.261Z,93.00
2023-03-21T06:48:50.884Z,100.20
2023-03-21T06:51:17.400Z,95.17
2023-03-21T06:53:44.632Z,93.47
2023-03-21T06:56:12.193Z,89.93
2023-03-21T06:58:39.062Z,105.20
2023-03-21T07:01:06.069Z,95.10
2023-03-21T07:03:33.034Z,102.20
2023-03-21T07:06:03.510Z,104.53
2023-03-21T07:08:29.996Z,100.53
2023-03-21T07:10:57.892Z,104.77
2023-03-21T07:13:24.408Z,91.93
2023-03-21T07:15:52.880Z,86.33
2023-03-21T07:18:19.404Z,79.20
2023-03-21T07:20:51.122Z,72.80
2023-03-21T07:23:25.815Z,81.70
2023-03-21T07:25:52.932Z,76.77
2023-03-21T07:28:20.108Z,79.73
2023-03-21T07:30:52.878Z,72.33
2023-03-21T07:33:19.307Z,68.03
2023-03-21T07:35:45.940Z,74.40
2023-03-21T07:38:13.935Z,77.90
2023-03-21T07:40:40.452Z,74.30
2023-03-21T07:43:06.896Z,74.27
2023-03-21T07:45:33.380Z,73.33
2023-03-21T07:48:01.147Z,70.80
2023-03-21T07:50:27.801Z,69.13
2023-03-21T07:52:54.529Z,77.67
2023-03-21T07:55:21.045Z,78.97
2023-03-21T07:57:50.011Z,75.50
2023-03-21T08:00:23.076Z,76.13
2023-03-21T08:02:57.927Z,78.83
2023-03-21T08:05:28.075Z,78.37
2023-03-21T08:07:54.595Z,70.77
2023-03-21T08:10:21.160Z,71.17
2023-03-21T08:12:47.840Z,74.63
2023-03-21T08:15:14.682Z,82.93
2023-03-21T08:17:41.831Z,69.37
2023-03-21T08:20:10.297Z,76.60
2023-03-21T08:22:36.793Z,75.13
2023-03-21T08:25:05.712Z,82.03
2023-03-21T08:27:32.801Z,67.33
2023-03-21T08:30:00.759Z,57.63
2023-03-21T08:32:31.300Z,66.93
2023-03-21T08:35:01.554Z,58.80
2023-03-21T08:37:28.816Z,55.53
2023-03-21T08:39:55.513Z,57.47
2023-03-21T08:42:22.989Z,53.17
2023-03-21T08:44:49.782Z,52.83
2023-03-21T08:47:16.359Z,59.93
2023-03-21T08:49:45.728Z,57.60
2023-03-21T08:52:12.285Z,61.07
2023-03-21T08:54:40.070Z,56.07
2023-03-21T08:57:06.799Z,62.60
2023-03-21T08:59:33.319Z,63.83
2023-03-21T09:01:59.787Z,60.17
2023-03-21T09:04:27.086Z,60.83
2023-03-21T09:06:56.215Z,62.23
2023-03-21T09:09:22.750Z,67.63
2023-03-21T09:11:50.532Z,74.93
2023-03-21T09:14:19.310Z,73.10
2023-03-21T09:16:46.889Z,77.70
2023-03-21T09:19:13.581Z,83.93
2023-03-21T09:21:40.403Z,94.43
2023-03-21T09:24:07.332Z,70.63
2023-03-21T09:26:33.977Z,69.67
2023-03-21T09:29:01.044Z,69.40
2023-03-21T09:31:28.563Z,64.20
2023-03-21T09:33:58.063Z,64.53
2023-03-21T09:36:27.279Z,76.70
2023-03-21T09:38:54.458Z,65.87
2023-03-21T09:41:38.930Z,59.40
2023-03-21T09:44:09.062Z,65.60
2023-03-21T09:46:56.395Z,71.57
2023-03-21T09:49:29.579Z,63.27
2023-03-21T09:51:56.624Z,62.33
2023-03-21T09:54:28.025Z,54.93
2023-03-21T09:56:57.750Z,58.93
2023-03-21T09:59:30.492Z,69.17
2023-03-21T10:02:00.292Z,63.87
2023-03-21T10:04:27.686Z,67.77
2023-03-21T10:06:58.257Z,57.00
2023-03-21T10:09:30.842Z,60.40
2023-03-21T10:12:02.554Z,54.43
2023-03-21T10:14:36.349Z,52.27
2023-03-21T10:17:23.650Z,58.73
2023-03-21T10:19:57.291Z,61.57
2023-03-21T10:22:23.761Z,61.63
2023-03-21T10:24:50.663Z,55.83
2023-03-21T10:27:17.182Z,61.47
2023-03-21T10:29:44.748Z,64.60
2023-03-21T10:32:14.297Z,67.53
2023-03-21T10:34:44.148Z,66.43
2023-03-21T10:37:12.051Z,62.57
2023-03-21T10:39:40.510Z,68.27
2023-03-21T10:42:09.039Z,59.13
2023-03-21T10:44:36.009Z,68.70
2023-03-21T10:47:08.543Z,59.63
2023-03-21T10:50:06.456Z,62.13
2023-03-21T10:52:27.831Z,61.77
2023-03-21T10:55:08.495Z,63.23
2023-03-21T10:57:37.308Z,54.17
2023-03-21T11:00:17.075Z,57.50
2023-03-21T11:02:48.232Z,49.33
2023-03-21T11:05:28.008Z,54.23
2023-03-21T11:08:01.207Z,52.03
2023-03-21T11:10:32.686Z,51.83
2023-03-21T11:13:04.053Z,56.13
2023-03-21T11:15:42.541Z,54.67
2023-03-21T11:18:19.067Z,49.23
2023-03-21T11:20:57.492Z,52.17
2023-03-21T11:23:29.714Z,49.47
2023-03-21T11:25:58.346Z,40.53
2023-03-21T11:28:28.600Z,50.80
2023-03-21T11:30:57.725Z,38.57
2023-03-21T11:33:28.565Z,34.77
2023-03-21T11:36:00.333Z,33.87
2023-03-21T11:38:31.773Z,33.47
2023-03-21T11:41:01.330Z,34.03
2023-03-21T11:43:31.994Z,30.83
2023-03-21T11:46:04.799Z,25.97
2023-03-21T11:48:35.454Z,28.70
2023-03-21T11:51:39.114Z,27.07
2023-03-21T11:54:22.254Z,25.83
2023-03-21T11:56:54.274Z,26.60
2023-03-21T11:59:35.888Z,35.80
2023-03-21T12:02:15.562Z,20.87
2023-03-21T12:04:46.981Z,22.60
2023-03-21T12:07:38.483Z,22.50
2023-03-21T12:10:16.916Z,19.00
2023-03-21T12:12:56.035Z,19.37
2023-03-21T12:15:37.472Z,23.20
2023-03-21T12:18:32.781Z,22.00
2023-03-21T12:21:34.050Z,16.73
2023-03-21T12:24:25.922Z,18.00
2023-03-21T12:26:59.710Z,22.40
2023-03-21T12:29:40.194Z,18.57
2023-03-21T12:32:09.625Z,16.87
2023-03-21T12:35:01.371Z,19.87
2023-03-21T12:37:53.851Z,18.70
2023-03-21T12:40:40.707Z,18.70
2023-03-21T12:43:29.642Z,17.83
2023-03-21T12:46:00.260Z,20.43
2023-03-21T12:48:48.632Z,17.60
2023-03-21T12:51:18.523Z,17.47
2023-03-21T12:53:53.148Z,18.30
2023-03-21T12:56:28.803Z,17.50
2023-03-21T12:59:05.814Z,17.43
2023-03-21T13:01:32.794Z,18.67
2023-03-21T13:04:27.353Z,17.60
2023-03-21T13:06:55.451Z,18.03
2023-03-21T13:09:38.266Z,16.80
2023-03-21T13:12:28.023Z,16.03
2023-03-21T13:15:24.181Z,16.63
2023-03-21T13:17:59.108Z,18.50
2023-03-21T13:20:46.610Z,15.50
2023-03-21T13:23:13.795Z,14.73
2023-03-21T13:25:46.806Z,14.57
2023-03-21T13:28:19.289Z,14.13
2023-03-21T13:30:47.102Z,13.87
2023-03-21T13:33:16.738Z,13.63
2023-03-21T13:35:45.065Z,13.90
2023-03-21T13:38:21.433Z,12.77
2023-03-21T13:40:50.587Z,13.33
2023-03-21T13:43:42.812Z,12.53
2023-03-21T13:46:14.741Z,11.57
2023-03-21T13:48:57.877Z,11.53
2023-03-21T13:51:47.663Z,10.97
2023-03-21T13:54:14.089Z,12.20
2023-03-21T13:56:46.656Z,9.77
2023-03-21T13:59:34.889Z,10.17
2023-03-21T14:02:13.616Z,9.20
2023-03-21T14:04:53.893Z,9.60
2023-03-21T14:07:31.484Z,10.33
2023-03-21T14:10:29.970Z,10.90
2023-03-21T14:12:57.289Z,10.13
2023-03-21T14:15:27.718Z,8.97
2023-03-21T14:17:55.367Z,9.23
2023-03-21T14:20:24.319Z,9.67
2023-03-21T14:22:51.261Z,9.50
2023-03-21T14:25:20.478Z,9.70
2023-03-21T14:28:09.216Z,9.90
2023-03-21T14:30:40.968Z,9.97
2023-03-21T14:33:11.293Z,9.90
2023-03-21T14:35:38.641Z,9.93
2023-03-21T14:38:07.485Z,7.97
2023-03-21T14:40:33.973Z,8.47
2023-03-21T14:43:07.420Z,8.47
2023-03-21T14:45:35.376Z,8.57
2023-03-21T14:48:08.555Z,9.17
2023-03-21T14:50:47.698Z,8.57
2023-03-21T14:53:29.031Z,8.10
2023-03-21T14:56:08.209Z,8.30
2023-03-21T14:58:38.646Z,9.27
2023-03-21T15:01:07.545Z,11.13
2023-03-21T15:03:34.643Z,12.33
2023-03-21T15:06:01.587Z,10.00
2023-03-21T15:08:29.003Z,9.93
2023-03-21T15:11:08.187Z,10.60
2023-03-21T15:13:45.698Z,11.00
2023-03-21T15:16:14.807Z,10.67
2023-03-21T15:18:42.150Z,10.90
2023-03-21T15:21:12.993Z,10.93
2023-03-21T15:23:40.661Z,11.23
2023-03-21T15:26:07.291Z,12.03
2023-03-21T15:28:34.779Z,11.33
2023-03-21T15:31:01.651Z,12.13
2023-03-21T15:33:28.332Z,13.80
2023-03-21T15:35:57.142Z,12.20
2023-03-21T15:38:40.132Z,12.70
2023-03-21T15:41:28.346Z,12.80
2023-03-21T15:44:15.914Z,12.93
2023-03-21T15:46:51.383Z,12.83
2023-03-21T15:49:27.658Z,13.93
2023-03-21T15:52:01.778Z,12.57
2023-03-21T15:54:34.390Z,13.93
2023-03-21T15:57:09.346Z,13.23
2023-03-21T15:59:40.466Z,13.37
2023-03-21T16:02:17.657Z,12.80
2023-03-21T16:04:56.345Z,12.40
2023-03-21T16:07:25.059Z,16.90
2023-03-21T16:09:58.508Z,15.43
2023-03-21T16:12:25.069Z,16.20
2023-03-21T16:14:51.584Z,16.47
2023-03-21T16:17:30.402Z,15.80
2023-03-21T16:19:57.004Z,16.33
2023-03-21T16:22:23.673Z,17.07
2023-03-21T16:24:50.197Z,17.40
2023-03-21T16:27:17.711Z,17.77
2023-03-21T16:29:44.236Z,16.83
2023-03-21T16:32:17.139Z,17.03
2023-03-21T16:34:45.293Z,17.63
2023-03-21T16:37:12.508Z,17.10
2023-03-21T16:39:39.177Z,17.77
2023-03-21T16:42:05.836Z,19.40
2023-03-21T16:44:33.819Z,19.83
2023-03-21T16:47:02.376Z,18.97
2023-03-21T16:49:29.073Z,18.97
2023-03-21T16:51:57.340Z,18.87
2023-03-21T16:54:24.153Z,18.33
2023-03-21T16:56:53.138Z,20.10
2023-03-21T16:59:20.358Z,18.53
2023-03-21T17:01:48.134Z,20.50
2023-03-21T17:04:16.274Z,19.77
2023-03-21T17:06:47.403Z,19.70
2023-03-21T17:09:15.539Z,20.03
2023-03-21T17:11:42.362Z,20.27
2023-03-21T17:14:10.759Z,20.60
2023-03-21T17:16:40.274Z,20.10
2023-03-21T17:19:16.385Z,20.97
2023-03-21T17:21:42.949Z,19.90
2023-03-21T17:24:10.063Z,20.87
2023-03-21T17:26:37.180Z,21.27
2023-03-21T17:29:03.958Z,20.77
2023-03-21T17:31:37.514Z,23.70
2023-03-21T17:34:04.547Z,21.63
2023-03-21T17:36:39.963Z,21.07
2023-03-21T17:39:08.760Z,21.03
2023-03-21T17:41:35.560Z,20.57
2023-03-21T17:44:02.790Z,22.53
2023-03-21T17:46:29.827Z,20.33
2023-03-21T17:48:56.879Z,20.07
2023-03-21T17:51:26.220Z,21.47
2023-03-21T17:53:52.809Z,24.70
2023-03-21T17:56:26.255Z,26.50
2023-03-21T17:58:53.687Z,28.97
2023-03-21T18:01:20.330Z,36.40
2023-03-21T18:03:47.215Z,31.43
2023-03-21T18:06:18.001Z,26.80
2023-03-21T18:08:45.448Z,28.40
2023-03-21T18:11:12.878Z,24.70
2023-03-21T18:13:40.325Z,24.63
2023-03-21T18:16:07.581Z,23.33
2023-03-21T18:18:34.107Z,23.67
2023-03-21T18:21:01.374Z,22.47
2023-03-21T18:23:27.999Z,21.43
2023-03-21T18:25:54.479Z,21.87
2023-03-21T18:28:21.821Z,22.90
2023-03-21T18:31:07.838Z,23.57
2023-03-21T18:33:37.922Z,22.53
2023-03-21T18:36:07.385Z,24.93
2023-03-21T18:38:34.472Z,23.97
2023-03-21T18:41:00.908Z,27.20
2023-03-21T18:46:16.071Z,24.63
2023-03-21T18:48:43.942Z,25.53
2023-03-21T18:51:11.931Z,25.87
2023-03-21T18:53:52.999Z,27.83
2023-03-21T18:57:06.141Z,29.03
2023-03-21T18:59:08.588Z,28.87
2023-03-21T19:01:35.950Z,26.07
2023-03-21T19:04:22.859Z,30.60
2023-03-21T19:06:53.422Z,30.93
2023-03-21T19:09:29.074Z,30.27
2023-03-21T19:11:58.859Z,30.40
2023-03-21T19:14:26.026Z,34.03
2023-03-21T19:18:03.043Z,30.83
2023-03-21T19:19:41.329Z,32.20
2023-03-21T19:22:07.917Z,32.73
2023-03-21T19:24:34.532Z,28.27
2023-03-21T19:27:01.031Z,32.73
2023-03-21T19:29:27.533Z,30.30
2023-03-21T19:31:54.150Z,31.60
2023-03-21T19:34:20.866Z,34.27
2023-03-21T19:36:51.582Z,32.40
2023-03-21T19:39:22.137Z,36.07
2023-03-21T19:41:48.992Z,32.40
2023-03-21T19:44:15.541Z,32.47
2023-03-21T19:46:42.806Z,33.27
2023-03-21T19:49:09.818Z,29.43
2023-03-21T19:51:37.162Z,34.23
2023-03-21T19:54:05.584Z,32.87
2023-03-21T19:56:32.176Z,33.80
2023-03-21T19:58:59.773Z,31.80
2023-03-21T20:01:26.705Z,32.83
2023-03-21T20:03:53.717Z,35.63
2023-03-21T20:06:22.507Z,36.97
2023-03-21T20:09:47.245Z,38.03
2023-03-21T20:11:36.603Z,33.43
2023-03-21T20:14:03.542Z,35.63
2023-03-21T20:16:35.082Z,38.53
2023-03-21T20:19:04.531Z,39.00
2023-03-21T20:21:36.628Z,40.00
2023-03-21T20:24:08.857Z,36.67
2023-03-21T20:26:37.519Z,33.73
2023-03-21T20:29:43.653Z,35.23
2023-03-21T20:31:53.210Z,34.50
2023-03-21T20:34:20.586Z,32.70
2023-03-21T20:36:48.239Z,32.40
2023-03-21T20:39:15.391Z,31.90
2023-03-21T20:41:41.921Z,36.50
2023-03-21T20:44:42.234Z,40.70
2023-03-21T20:47:00.485Z,36.53
2023-03-21T20:49:28.196Z,35.47
2023-03-21T20:54:42.271Z,31.93
2023-03-21T20:57:09.113Z,33.67
2023-03-21T20:59:35.722Z,31.40
2023-03-21T21:02:05.298Z,33.30
2023-03-21T21:05:12.265Z,33.43
2023-03-21T21:07:21.880Z,31.87
2023-03-21T21:09:49.279Z,38.27
2023-03-21T21:12:19.262Z,35.33
2023-03-21T21:14:46.828Z,36.67
2023-03-21T21:20:01.637Z,35.50
2023-03-21T21:22:29.168Z,36.63
2023-03-21T21:24:55.623Z,40.87
2023-03-21T21:27:22.116Z,36.23
2023-03-21T21:29:50.217Z,38.33
2023-03-21T21:32:18.677Z,38.37
2023-03-21T21:34:45.617Z,38.27
2023-03-21T21:37:12.360Z,35.37
2023-03-21T21:39:40.332Z,37.60
2023-03-21T21:42:06.924Z,36.00
2023-03-21T21:44:33.389Z,39.50
2023-03-21T21:46:59.941Z,39.77
2023-03-21T21:49:31.522Z,34.50
2023-03-21T21:51:59.855Z,35.10
2023-03-21T21:54:30.329Z,39.93
2023-03-21T21:56:58.084Z,37.53
2023-03-21T21:59:24.744Z,35.80
2023-03-21T22:01:51.508Z,37.67
2023-03-21T22:04:18.983Z,34.57
2023-03-21T22:06:48.357Z,34.90
2023-03-21T22:09:18.027Z,38.87
2023-03-21T22:11:44.593Z,35.07
2023-03-21T22:14:11.052Z,31.67
2023-03-21T22:16:37.603Z,34.33
2023-03-21T22:19:04.695Z,33.23
2023-03-21T22:21:34.485Z,36.10
2023-03-21T22:24:01.772Z,33.33
2023-03-21T22:26:28.558Z,37.13
2023-03-21T22:28:55.140Z,37.00
2023-03-21T22:31:27.045Z,33.53
2023-03-21T22:33:56.540Z,34.33
2023-03-21T22:36:22.996Z,31.40
2023-03-21T22:38:49.445Z,34.90
2023-03-21T22:41:15.902Z,32.97
2023-03-21T22:43:42.463Z,30.87
2023-03-21T22:46:09.021Z,30.63
2023-03-21T22:48:35.581Z,31.07
2023-03-21T22:51:02.113Z,32.53
2023-03-21T22:53:29.142Z,30.07
2023-03-21T22:55:55.775Z,29.83
2023-03-21T22:58:22.344Z,30.30
2023-03-21T23:00:48.923Z,33.10
2023-03-21T23:03:16.805Z,29.17
2023-03-21T23:05:44.279Z,30.50
2023-03-21T23:08:11.121Z,31.30
2023-03-21T23:10:39.444Z,29.53
2023-03-21T23:13:07.381Z,29.97
2023-03-21T23:15:34.018Z,28.97
2023-03-21T23:18:00.515Z,31.57
2023-03-21T23:20:27.177Z,33.77
2023-03-21T23:22:53.781Z,35.03
2023-03-21T23:25:20.698Z,32.63
2023-03-21T23:27:50.633Z,30.87
2023-03-21T23:30:17.218Z,34.30
2023-03-21T23:32:43.686Z,31.43
2023-03-21T23:35:10.360Z,32.53
2023-03-21T23:37:37.170Z,31.77
2023-03-21T23:40:08.950Z,33.50
2023-03-21T23:42:36.211Z,31.03
2023-03-21T23:45:02.818Z,31.10
2023-03-21T23:47:30.921Z,34.10
2023-03-21T23:49:58.373Z,31.20
2023-03-21T23:52:28.265Z,32.30
2023-03-21T23:54:55.528Z,34.47
2023-03-21T23:57:22.065Z,30.37
2023-03-21T23:59:48.530Z,31.90
